createdAt,value
2022-12-31T00:03:31.058Z,98880.27
2022-12-31T00:08:55.370Z,98892.81
2022-12-31T00:14:19.350Z,98897.88
2022-12-31T00:19:43.446Z,98896.08
2022-12-31T00:25:08.068Z,98908.45
2022-12-31T00:30:32.071Z,98912.25
2022-12-31T00:35:56.420Z,98916.77
2022-12-31T00:41:20.391Z,98901.33
2022-12-31T00:52:07.740Z,98907.90
2022-12-31T00:57:32.461Z,98913.33
2022-12-31T01:02:55.815Z,98922.61
2022-12-31T01:08:19.990Z,98931.66
2022-12-31T01:13:44.605Z,98946.35
2022-12-31T01:19:09.946Z,98954.77
2022-12-31T01:24:34.003Z,98962.33
2022-12-31T01:29:58.562Z,98958.98
2022-12-31T01:35:22.564Z,98947.77
2022-12-31T01:40:46.453Z,98948.98
2022-12-31T01:46:10.793Z,98959.98
2022-12-31T01:51:35.391Z,98973.52
2022-12-31T01:56:59.417Z,98983.13
2022-12-31T02:02:23.722Z,98984.86
2022-12-31T02:07:47.654Z,98992.45
2022-12-31T02:13:10.950Z,98992.19
2022-12-31T02:18:49.996Z,98994.54
2022-12-31T02:24:16.358Z,98992.33
2022-12-31T02:30:06.810Z,98974.42
2022-12-31T02:35:49.803Z,98974.09
2022-12-31T02:41:34.450Z,98979.70
2022-12-31T02:47:01.737Z,98981.52
2022-12-31T02:52:41.119Z,98994.96
2022-12-31T02:58:14.553Z,99003.80
2022-12-31T03:03:38.330Z,99015.55
2022-12-31T03:09:16.256Z,99022.30
2022-12-31T03:14:39.825Z,99031.41
2022-12-31T03:20:20.913Z,99033.91
2022-12-31T03:25:46.063Z,99026.23
2022-12-31T03:31:10.113Z,99034.49
2022-12-31T03:36:34.352Z,99025.70
2022-12-31T03:41:59.547Z,99015.10
2022-12-31T03:47:23.467Z,99009.04
2022-12-31T03:52:47.364Z,99011.48
2022-12-31T03:58:11.452Z,99013.21
2022-12-31T04:03:35.693Z,99010.02
2022-12-31T04:09:01.278Z,99006.44
2022-12-31T04:14:25.166Z,99005.48
2022-12-31T04:19:48.515Z,99014.58
2022-12-31T04:25:13.155Z,99005.38
2022-12-31T04:30:37.802Z,99010.23
2022-12-31T04:36:05.174Z,99009.84
2022-12-31T04:41:29.604Z,98999.04
2022-12-31T04:46:53.653Z,98989.21
2022-12-31T04:52:17.408Z,98995.33
2022-12-31T04:57:42.516Z,98995.81
2022-12-31T05:03:06.347Z,98989.70
2022-12-31T05:08:30.276Z,98988.51
2022-12-31T05:13:54.114Z,99000.21
2022-12-31T05:19:17.794Z,98998.05
2022-12-31T05:24:41.122Z,99001.29
2022-12-31T05:30:04.626Z,99014.83
2022-12-31T05:35:29.384Z,99016.20
2022-12-31T05:41:06.515Z,99017.11
2022-12-31T05:46:30.397Z,99010.80
2022-12-31T05:51:54.624Z,99014.97
2022-12-31T05:57:18.346Z,99006.30
2022-12-31T06:02:41.933Z,99014.41
2022-12-31T06:08:06.296Z,99010.94
2022-12-31T06:13:30.567Z,99014.33
2022-12-31T06:18:54.819Z,99021.43
2022-12-31T06:24:19.401Z,99020.41
2022-12-31T06:29:43.131Z,99025.73
2022-12-31T06:35:07.093Z,99021.39
2022-12-31T06:40:31.095Z,99031.80
2022-12-31T06:45:54.770Z,99016.08
2022-12-31T06:51:19.730Z,99017.04
2022-12-31T06:56:45.117Z,99024.27
2022-12-31T07:02:24.114Z,99030.56
2022-12-31T07:07:59.791Z,99041.08
2022-12-31T07:13:27.122Z,99048.41
2022-12-31T07:18:56.740Z,99055.08
2022-12-31T07:24:21.238Z,99060.10
2022-12-31T07:29:46.127Z,99051.23
2022-12-31T07:35:22.040Z,99053.33
2022-12-31T07:41:09.455Z,99060.34
2022-12-31T07:46:53.263Z,99035.86
2022-12-31T07:52:17.509Z,99036.55
2022-12-31T07:57:48.907Z,99045.89
2022-12-31T08:03:16.913Z,99047.91
2022-12-31T08:08:47.751Z,99047.05
2022-12-31T08:14:12.334Z,99055.29
2022-12-31T08:19:36.651Z,99045.05
2022-12-31T08:25:06.608Z,99032.73
2022-12-31T08:30:40.905Z,99028.73
2022-12-31T08:36:10.428Z,99034.89
2022-12-31T08:41:43.187Z,99037.81
2022-12-31T08:47:34.151Z,99045.44
2022-12-31T08:53:01.466Z,99048.56
2022-12-31T08:58:36.251Z,99050.06
2022-12-31T09:04:15.843Z,99043.30
2022-12-31T09:09:40.299Z,99041.59
2022-12-31T09:15:08.316Z,99048.73
2022-12-31T09:20:43.052Z,99049.37
2022-12-31T09:26:43.909Z,99060.64
2022-12-31T09:32:14.069Z,99059.92
2022-12-31T09:37:48.034Z,99057.56
2022-12-31T09:43:17.268Z,99051.74
2022-12-31T09:48:44.408Z,99042.05
2022-12-31T09:54:20.859Z,99035.36
2022-12-31T10:00:04.451Z,99033.63
2022-12-31T10:05:45.722Z,99016.03
2022-12-31T10:11:29.015Z,99020.96
2022-12-31T10:17:02.402Z,99021.50
2022-12-31T10:22:32.531Z,99017.46
2022-12-31T10:28:02.032Z,99022.77
2022-12-31T10:33:42.487Z,99033.95
2022-12-31T10:39:14.511Z,99032.27
2022-12-31T10:44:47.543Z,99034.55
2022-12-31T10:50:15.480Z,99032.48
2022-12-31T11:02:14.825Z,99036.21
2022-12-31T11:07:59.679Z,99027.42
2022-12-31T11:13:42.084Z,99022.06
2022-12-31T11:19:32.214Z,99027.88
2022-12-31T11:25:18.902Z,99019.31
2022-12-31T11:30:52.065Z,99015.17
2022-12-31T11:36:19.725Z,99018.02
2022-12-31T11:41:47.513Z,99011.75
2022-12-31T11:47:25.094Z,99005.34
2022-12-31T11:53:08.461Z,99027.40
2022-12-31T11:58:33.271Z,99026.51
2022-12-31T12:03:56.866Z,99024.49
2022-12-31T12:09:30.330Z,99016.86
2022-12-31T12:14:55.314Z,99002.58
2022-12-31T12:20:20.415Z,99001.96
2022-12-31T12:25:44.827Z,99014.29
2022-12-31T12:31:08.730Z,98995.61
2022-12-31T12:36:32.318Z,99009.77
2022-12-31T12:42:04.282Z,99020.17
2022-12-31T12:47:28.357Z,99025.25
2022-12-31T12:53:11.192Z,99023.67
2022-12-31T12:58:58.607Z,99004.47
2022-12-31T13:04:37.921Z,99007.09
2022-12-31T13:10:20.778Z,99032.34
2022-12-31T13:15:51.064Z,99034.88
2022-12-31T13:21:22.187Z,99030.33
2022-12-31T13:27:01.314Z,99026.55
2022-12-31T13:32:27.006Z,99034.34
2022-12-31T13:37:51.565Z,99054.56
2022-12-31T13:43:20.650Z,99062.11
2022-12-31T13:48:46.535Z,99065.42
2022-12-31T13:54:23.338Z,99062.16
2022-12-31T13:59:47.941Z,99069.35
2022-12-31T14:05:20.871Z,99075.77
2022-12-31T14:10:45.057Z,99070.49
2022-12-31T14:16:23.998Z,99072.02
2022-12-31T14:22:11.132Z,99076.08
2022-12-31T14:27:38.823Z,99081.27
2022-12-31T14:33:18.469Z,99098.39
2022-12-31T14:38:55.376Z,99111.16
2022-12-31T14:44:22.861Z,99106.38
2022-12-31T14:50:02.368Z,99110.74
2022-12-31T14:55:31.099Z,99118.77
2022-12-31T15:00:57.921Z,99133.46
2022-12-31T15:06:25.385Z,99143.91
2022-12-31T15:11:58.617Z,99144.69
2022-12-31T15:17:33.444Z,99154.05
2022-12-31T15:22:57.187Z,99159.25
2022-12-31T15:28:32.896Z,99166.05
2022-12-31T15:33:58.168Z,99164.88
2022-12-31T15:39:33.884Z,99169.42
2022-12-31T15:45:03.340Z,99184.98
2022-12-31T15:50:27.399Z,99179.28
2022-12-31T15:55:51.746Z,99180.03
2022-12-31T16:01:24.632Z,99179.69
2022-12-31T16:06:51.335Z,99199.70
2022-12-31T16:12:18.693Z,99200.45
2022-12-31T16:17:42.671Z,99207.20
2022-12-31T16:23:13.683Z,99204.92
2022-12-31T16:28:37.575Z,99208.86
2022-12-31T16:34:04.848Z,99208.18
2022-12-31T16:39:33.462Z,99200.75
2022-12-31T16:44:59.948Z,99201.30
2022-12-31T16:50:25.743Z,99199.89
2022-12-31T16:56:01.757Z,99196.05
2022-12-31T17:01:27.209Z,99197.98
2022-12-31T17:06:51.722Z,99188.48
2022-12-31T17:12:17.922Z,99201.90
2022-12-31T17:17:41.931Z,99207.63
2022-12-31T17:23:07.145Z,99200.48
2022-12-31T17:28:33.631Z,99210.60
2022-12-31T17:34:07.737Z,99228.65
2022-12-31T17:40:49.726Z,99231.84
2022-12-31T17:45:47.597Z,99235.51
2022-12-31T17:51:13.147Z,99233.85
2022-12-31T17:56:37.201Z,99229.06
2022-12-31T18:02:02.309Z,99215.92
2022-12-31T18:07:27.998Z,99215.92
2022-12-31T18:12:53.487Z,99205.14
2022-12-31T18:18:25.254Z,99199.56
2022-12-31T18:23:51.767Z,99210.83
2022-12-31T18:29:17.816Z,99218.23
2022-12-31T18:34:43.229Z,99225.10
2022-12-31T18:40:08.014Z,99232.81
2022-12-31T18:45:32.177Z,99234.29
2022-12-31T18:50:57.405Z,99237.73
2022-12-31T18:56:23.750Z,99237.69
2022-12-31T19:01:48.849Z,99234.92
2022-12-31T19:07:13.846Z,99244.80
2022-12-31T19:12:38.040Z,99236.06
2022-12-31T19:18:02.235Z,99220.60
2022-12-31T19:23:27.255Z,99233.36
2022-12-31T19:28:52.276Z,99238.18
2022-12-31T19:34:16.410Z,99235.34
2022-12-31T19:39:40.795Z,99251.41
2022-12-31T19:45:07.655Z,99245.83
2022-12-31T19:50:32.002Z,99256.77
2022-12-31T19:55:57.323Z,99252.08
2022-12-31T20:01:23.165Z,99255.58
2022-12-31T20:06:47.825Z,99254.70
2022-12-31T20:12:12.864Z,99242.82
2022-12-31T20:17:37.986Z,99250.40
2022-12-31T20:23:02.327Z,99247.08
2022-12-31T20:28:27.592Z,99247.58
2022-12-31T20:33:52.033Z,99243.30
2022-12-31T20:39:16.507Z,99244.77
2022-12-31T20:44:41.578Z,99246.60
2022-12-31T20:50:11.860Z,99240.39
2022-12-31T20:55:38.814Z,99232.91
2022-12-31T21:01:03.621Z,99226.24
2022-12-31T21:06:28.752Z,99234.36
2022-12-31T21:12:10.479Z,99234.80
2022-12-31T21:17:35.076Z,99232.98
2022-12-31T21:22:58.997Z,99229.39
2022-12-31T21:28:23.097Z,99224.55
2022-12-31T21:33:49.037Z,99226.96
2022-12-31T21:39:13.757Z,99226.65
2022-12-31T21:44:38.120Z,99223.08
2022-12-31T21:50:03.568Z,99222.86
2022-12-31T21:55:44.890Z,99224.77
2022-12-31T22:01:26.727Z,99227.05
2022-12-31T22:06:52.135Z,99219.43
2022-12-31T22:12:16.641Z,99224.27
2022-12-31T22:17:41.150Z,99218.52
2022-12-31T22:23:05.791Z,99209.64
2022-12-31T22:28:39.055Z,99207.77
2022-12-31T22:34:03.662Z,99214.05
2022-12-31T22:39:44.067Z,99202.36
2022-12-31T22:45:09.653Z,99204.21
2022-12-31T22:50:35.212Z,99212.20
2022-12-31T22:56:00.362Z,99219.91
2022-12-31T23:01:25.368Z,99232.55
2022-12-31T23:06:49.693Z,99236.86
2022-12-31T23:12:14.690Z,99243.92
2022-12-31T23:17:55.902Z,99254.98
2022-12-31T23:23:20.742Z,99251.94
2022-12-31T23:28:45.762Z,99251.67
2022-12-31T23:34:11.050Z,99256.98
2022-12-31T23:39:35.501Z,99248.37
2022-12-31T23:45:00.477Z,99249.83
2022-12-31T23:50:52.468Z,99244.52
2022-12-31T23:56:23.366Z,99255.08
